sensor_id;sensor_type;location;lat;lon;timestamp;temperature;humidity
46730;DHT22;32476;50.002;11.854;2023-06-10T00:02:20;13.60;99.90
46730;DHT22;32476;50.002;11.854;2023-06-10T00:04:46;13.50;99.90
46730;DHT22;32476;50.002;11.854;2023-06-10T00:07:13;13.50;99.90
46730;DHT22;32476;50.002;11.854;2023-06-10T00:09:39;13.40;99.90
46730;DHT22;32476;50.002;11.854;2023-06-10T00:12:07;13.40;99.90
46730;DHT22;32476;50.002;11.854;2023-06-10T00:14:38;13.30;99.90
46730;DHT22;32476;50.002;11.854;2023-06-10T00:17:05;13.30;99.90
46730;DHT22;32476;50.002;11.854;2023-06-10T00:19:34;13.30;99.90
46730;DHT22;32476;50.002;11.854;2023-06-10T00:22:02;13.20;99.90
46730;DHT22;32476;50.002;11.854;2023-06-10T00:24:28;13.20;99.90
46730;DHT22;32476;50.002;11.854;2023-06-10T00:26:55;13.20;99.90
46730;DHT22;32476;50.002;11.854;2023-06-10T00:29:22;13.20;99.90
46730;DHT22;32476;50.002;11.854;2023-06-10T00:31:48;13.10;99.90
46730;DHT22;32476;50.002;11.854;2023-06-10T00:34:14;13.10;99.90
46730;DHT22;32476;50.002;11.854;2023-06-10T00:36:41;13.10;99.90
46730;DHT22;32476;50.002;11.854;2023-06-10T00:39:08;13.10;99.90
46730;DHT22;32476;50.002;11.854;2023-06-10T00:41:34;13.00;99.90
46730;DHT22;32476;50.002;11.854;2023-06-10T00:44:02;13.00;99.90
46730;DHT22;32476;50.002;11.854;2023-06-10T00:46:28;13.00;99.90
46730;DHT22;32476;50.002;11.854;2023-06-10T00:48:57;13.00;99.90
46730;DHT22;32476;50.002;11.854;2023-06-10T00:51:25;12.90;99.90
46730;DHT22;32476;50.002;11.854;2023-06-10T00:53:52;12.90;99.90
46730;DHT22;32476;50.002;11.854;2023-06-10T00:56:18;12.90;99.90
46730;DHT22;32476;50.002;11.854;2023-06-10T00:58:47;12.90;99.90
46730;DHT22;32476;50.002;11.854;2023-06-10T01:01:13;12.90;99.90
46730;DHT22;32476;50.002;11.854;2023-06-10T01:03:39;12.80;99.90
46730;DHT22;32476;50.002;11.854;2023-06-10T01:06:36;12.80;99.90
46730;DHT22;32476;50.002;11.854;2023-06-10T01:11:46;12.80;99.90
46730;DHT22;32476;50.002;11.854;2023-06-10T01:14:17;12.80;99.90
46730;DHT22;32476;50.002;11.854;2023-06-10T01:16:44;12.90;99.90
46730;DHT22;32476;50.002;11.854;2023-06-10T01:19:14;12.80;99.90
46730;DHT22;32476;50.002;11.854;2023-06-10T01:21:44;12.80;99.90
46730;DHT22;32476;50.002;11.854;2023-06-10T01:24:14;12.70;99.90
46730;DHT22;32476;50.002;11.854;2023-06-10T01:26:45;12.70;99.90
46730;DHT22;32476;50.002;11.854;2023-06-10T01:29:28;12.70;99.90
46730;DHT22;32476;50.002;11.854;2023-06-10T01:32:06;12.70;99.90
46730;DHT22;32476;50.002;11.854;2023-06-10T01:34:35;12.60;99.90
46730;DHT22;32476;50.002;11.854;2023-06-10T01:37:04;12.60;99.90
46730;DHT22;32476;50.002;11.854;2023-06-10T01:39:32;12.60;99.90
46730;DHT22;32476;50.002;11.854;2023-06-10T01:41:58;12.60;99.90
46730;DHT22;32476;50.002;11.854;2023-06-10T01:44:25;12.60;99.90
46730;DHT22;32476;50.002;11.854;2023-06-10T01:46:51;12.70;99.90
46730;DHT22;32476;50.002;11.854;2023-06-10T01:49:17;12.60;99.90
46730;DHT22;32476;50.002;11.854;2023-06-10T01:51:45;12.60;99.90
46730;DHT22;32476;50.002;11.854;2023-06-10T01:54:11;12.50;99.90
46730;DHT22;32476;50.002;11.854;2023-06-10T01:56:37;12.50;99.90
46730;DHT22;32476;50.002;11.854;2023-06-10T01:59:04;12.60;99.90
46730;DHT22;32476;50.002;11.854;2023-06-10T02:01:31;12.60;99.90
46730;DHT22;32476;50.002;11.854;2023-06-10T02:03:58;12.60;99.90
46730;DHT22;32476;50.002;11.854;2023-06-10T02:06:25;12.70;99.90
46730;DHT22;32476;50.002;11.854;2023-06-10T02:08:51;13.00;99.90
46730;DHT22;32476;50.002;11.854;2023-06-10T02:11:17;13.20;99.90
46730;DHT22;32476;50.002;11.854;2023-06-10T02:13:45;13.70;99.90
46730;DHT22;32476;50.002;11.854;2023-06-10T02:16:11;14.10;99.90
46730;DHT22;32476;50.002;11.854;2023-06-10T02:18:39;14.30;99.90
46730;DHT22;32476;50.002;11.854;2023-06-10T02:21:10;14.60;99.90
46730;DHT22;32476;50.002;11.854;2023-06-10T02:23:36;14.80;99.90
46730;DHT22;32476;50.002;11.854;2023-06-10T02:26:02;14.80;99.90
46730;DHT22;32476;50.002;11.854;2023-06-10T02:28:29;15.00;99.90
46730;DHT22;32476;50.002;11.854;2023-06-10T02:30:55;15.00;99.90
46730;DHT22;32476;50.002;11.854;2023-06-10T02:33:22;15.10;99.90
46730;DHT22;32476;50.002;11.854;2023-06-10T02:35:51;15.10;99.90
46730;DHT22;32476;50.002;11.854;2023-06-10T02:38:17;15.10;99.90
46730;DHT22;32476;50.002;11.854;2023-06-10T02:40:43;15.10;99.90
46730;DHT22;32476;50.002;11.854;2023-06-10T02:43:11;15.10;99.90
46730;DHT22;32476;50.002;11.854;2023-06-10T02:45:37;15.10;99.90
46730;DHT22;32476;50.002;11.854;2023-06-10T02:48:03;15.10;99.90
46730;DHT22;32476;50.002;11.854;2023-06-10T02:50:30;15.10;99.90
46730;DHT22;32476;50.002;11.854;2023-06-10T02:52:56;15.10;99.90
46730;DHT22;32476;50.002;11.854;2023-06-10T02:55:22;15.10;99.90
46730;DHT22;32476;50.002;11.854;2023-06-10T02:57:53;15.10;99.90
46730;DHT22;32476;50.002;11.854;2023-06-10T03:00:20;15.00;99.90
46730;DHT22;32476;50.002;11.854;2023-06-10T03:02:47;15.00;99.90
46730;DHT22;32476;50.002;11.854;2023-06-10T03:05:15;14.90;99.90
46730;DHT22;32476;50.002;11.854;2023-06-10T03:07:42;15.00;99.90
46730;DHT22;32476;50.002;11.854;2023-06-10T03:10:08;14.80;99.90
46730;DHT22;32476;50.002;11.854;2023-06-10T03:12:36;14.80;99.90
46730;DHT22;32476;50.002;11.854;2023-06-10T03:15:02;14.80;99.90
46730;DHT22;32476;50.002;11.854;2023-06-10T03:17:29;14.90;99.90
46730;DHT22;32476;50.002;11.854;2023-06-10T03:19:57;15.00;99.90
46730;DHT22;32476;50.002;11.854;2023-06-10T03:22:22;15.00;99.90
46730;DHT22;32476;50.002;11.854;2023-06-10T03:24:48;15.00;99.90
46730;DHT22;32476;50.002;11.854;2023-06-10T03:27:17;15.00;99.90
46730;DHT22;32476;50.002;11.854;2023-06-10T03:29:43;15.00;99.90
46730;DHT22;32476;50.002;11.854;2023-06-10T03:32:09;15.10;99.90
46730;DHT22;32476;50.002;11.854;2023-06-10T03:34:36;15.10;99.90
46730;DHT22;32476;50.002;11.854;2023-06-10T03:37:02;15.10;99.90
46730;DHT22;32476;50.002;11.854;2023-06-10T03:39:28;15.20;99.90
46730;DHT22;32476;50.002;11.854;2023-06-10T03:41:56;15.40;99.90
46730;DHT22;32476;50.002;11.854;2023-06-10T03:44:25;15.70;99.90
46730;DHT22;32476;50.002;11.854;2023-06-10T03:46:54;15.80;99.90
46730;DHT22;32476;50.002;11.854;2023-06-10T03:49:23;15.80;99.90
46730;DHT22;32476;50.002;11.854;2023-06-10T03:51:51;15.90;99.90
46730;DHT22;32476;50.002;11.854;2023-06-10T03:54:17;16.10;99.90
46730;DHT22;32476;50.002;11.854;2023-06-10T03:56:44;16.10;99.90
46730;DHT22;32476;50.002;11.854;2023-06-10T03:59:10;16.20;99.90
46730;DHT22;32476;50.002;11.854;2023-06-10T04:01:36;16.10;99.90
46730;DHT22;32476;50.002;11.854;2023-06-10T04:04:05;16.20;99.90
46730;DHT22;32476;50.002;11.854;2023-06-10T04:06:31;16.10;99.90
46730;DHT22;32476;50.002;11.854;2023-06-10T04:08:57;16.20;99.90
46730;DHT22;32476;50.002;11.854;2023-06-10T04:11:24;16.20;99.90
46730;DHT22;32476;50.002;11.854;2023-06-10T04:13:50;16.10;99.90
46730;DHT22;32476;50.002;11.854;2023-06-10T04:16:17;16.10;99.90
46730;DHT22;32476;50.002;11.854;2023-06-10T04:18:44;16.10;99.90
46730;DHT22;32476;50.002;11.854;2023-06-10T04:21:10;16.10;99.90
46730;DHT22;32476;50.002;11.854;2023-06-10T04:23:36;16.10;99.90
46730;DHT22;32476;50.002;11.854;2023-06-10T04:26:07;16.10;99.90
46730;DHT22;32476;50.002;11.854;2023-06-10T04:28:33;16.20;99.90
46730;DHT22;32476;50.002;11.854;2023-06-10T04:30:59;16.20;99.90
46730;DHT22;32476;50.002;11.854;2023-06-10T04:33:26;16.20;99.90
46730;DHT22;32476;50.002;11.854;2023-06-10T04:35:53;16.20;99.90
46730;DHT22;32476;50.002;11.854;2023-06-10T04:38:19;16.10;99.90
46730;DHT22;32476;50.002;11.854;2023-06-10T04:40:47;16.20;99.90
46730;DHT22;32476;50.002;11.854;2023-06-10T04:43:13;16.30;99.90
46730;DHT22;32476;50.002;11.854;2023-06-10T04:45:39;16.40;99.90
46730;DHT22;32476;50.002;11.854;2023-06-10T04:48:07;16.40;99.90
46730;DHT22;32476;50.002;11.854;2023-06-10T04:50:33;16.30;99.90
46730;DHT22;32476;50.002;11.854;2023-06-10T04:52:59;16.30;99.90
46730;DHT22;32476;50.002;11.854;2023-06-10T04:55:26;16.30;99.90
46730;DHT22;32476;50.002;11.854;2023-06-10T04:57:52;16.40;99.90
46730;DHT22;32476;50.002;11.854;2023-06-10T05:00:18;16.40;99.90
46730;DHT22;32476;50.002;11.854;2023-06-10T05:02:46;16.40;99.90
46730;DHT22;32476;50.002;11.854;2023-06-10T05:05:18;16.50;99.90
46730;DHT22;32476;50.002;11.854;2023-06-10T05:07:46;16.50;99.90
46730;DHT22;32476;50.002;11.854;2023-06-10T05:10:12;16.60;99.90
46730;DHT22;32476;50.002;11.854;2023-06-10T05:12:39;16.60;99.90
46730;DHT22;32476;50.002;11.854;2023-06-10T05:15:07;16.60;99.90
46730;DHT22;32476;50.002;11.854;2023-06-10T05:17:34;16.70;99.90
46730;DHT22;32476;50.002;11.854;2023-06-10T05:20:03;16.70;99.90
46730;DHT22;32476;50.002;11.854;2023-06-10T05:22:31;16.70;99.90
46730;DHT22;32476;50.002;11.854;2023-06-10T05:24:57;16.70;99.90
46730;DHT22;32476;50.002;11.854;2023-06-10T05:27:23;16.70;99.90
46730;DHT22;32476;50.002;11.854;2023-06-10T05:29:51;16.70;99.90
46730;DHT22;32476;50.002;11.854;2023-06-10T05:32:17;16.80;99.90
46730;DHT22;32476;50.002;11.854;2023-06-10T05:34:44;16.70;99.90
46730;DHT22;32476;50.002;11.854;2023-06-10T05:37:12;16.80;99.90
46730;DHT22;32476;50.002;11.854;2023-06-10T05:39:39;16.80;99.90
46730;DHT22;32476;50.002;11.854;2023-06-10T05:42:06;16.80;99.90
46730;DHT22;32476;50.002;11.854;2023-06-10T05:44:34;16.80;99.90
46730;DHT22;32476;50.002;11.854;2023-06-10T05:47:00;16.90;99.90
46730;DHT22;32476;50.002;11.854;2023-06-10T05:49:27;16.80;99.90
46730;DHT22;32476;50.002;11.854;2023-06-10T05:51:54;16.80;99.90
46730;DHT22;32476;50.002;11.854;2023-06-10T05:54:21;16.80;99.90
46730;DHT22;32476;50.002;11.854;2023-06-10T05:56:47;16.80;99.90
46730;DHT22;32476;50.002;11.854;2023-06-10T05:59:15;16.90;99.90
46730;DHT22;32476;50.002;11.854;2023-06-10T06:01:41;16.90;99.90
46730;DHT22;32476;50.002;11.854;2023-06-10T06:04:07;16.90;99.90
46730;DHT22;32476;50.002;11.854;2023-06-10T06:06:38;17.00;99.90
46730;DHT22;32476;50.002;11.854;2023-06-10T06:09:04;17.00;99.90
46730;DHT22;32476;50.002;11.854;2023-06-10T06:11:30;17.00;99.90
46730;DHT22;32476;50.002;11.854;2023-06-10T06:13:57;17.10;99.90
46730;DHT22;32476;50.002;11.854;2023-06-10T06:16:23;17.10;99.90
46730;DHT22;32476;50.002;11.854;2023-06-10T06:18:49;17.10;99.90
46730;DHT22;32476;50.002;11.854;2023-06-10T06:21:17;17.20;99.90
46730;DHT22;32476;50.002;11.854;2023-06-10T06:23:43;17.20;99.90
46730;DHT22;32476;50.002;11.854;2023-06-10T06:26:09;17.30;99.90
46730;DHT22;32476;50.002;11.854;2023-06-10T06:28:36;17.20;99.90
46730;DHT22;32476;50.002;11.854;2023-06-10T06:31:02;17.20;99.90
46730;DHT22;32476;50.002;11.854;2023-06-10T06:33:28;17.20;99.90
46730;DHT22;32476;50.002;11.854;2023-06-10T06:35:56;17.20;99.90
46730;DHT22;32476;50.002;11.854;2023-06-10T06:38:22;17.20;99.90
46730;DHT22;32476;50.002;11.854;2023-06-10T06:40:48;17.20;99.90
46730;DHT22;32476;50.002;11.854;2023-06-10T06:43:15;17.20;99.90
46730;DHT22;32476;50.002;11.854;2023-06-10T06:45:43;17.30;99.90
46730;DHT22;32476;50.002;11.854;2023-06-10T06:48:08;17.40;99.90
46730;DHT22;32476;50.002;11.854;2023-06-10T06:50:36;17.50;99.90
46730;DHT22;32476;50.002;11.854;2023-06-10T06:53:03;17.60;99.90
46730;DHT22;32476;50.002;11.854;2023-06-10T06:55:29;17.60;99.90
46730;DHT22;32476;50.002;11.854;2023-06-10T06:57:57;17.60;99.90
46730;DHT22;32476;50.002;11.854;2023-06-10T07:00:24;17.80;99.90
46730;DHT22;32476;50.002;11.854;2023-06-10T07:02:50;17.90;99.90
46730;DHT22;32476;50.002;11.854;2023-06-10T07:05:17;18.00;99.90
46730;DHT22;32476;50.002;11.854;2023-06-10T07:07:43;18.00;99.90
46730;DHT22;32476;50.002;11.854;2023-06-10T07:10:10;18.30;99.90
46730;DHT22;32476;50.002;11.854;2023-06-10T07:12:38;18.30;99.90
46730;DHT22;32476;50.002;11.854;2023-06-10T07:15:04;18.50;99.90
46730;DHT22;32476;50.002;11.854;2023-06-10T07:17:31;18.90;99.90
46730;DHT22;32476;50.002;11.854;2023-06-10T07:19:58;18.90;99.90
46730;DHT22;32476;50.002;11.854;2023-06-10T07:22:25;19.10;99.90
46730;DHT22;32476;50.002;11.854;2023-06-10T07:24:51;19.30;99.90
46730;DHT22;32476;50.002;11.854;2023-06-10T07:27:18;19.40;99.90
46730;DHT22;32476;50.002;11.854;2023-06-10T07:29:44;19.60;99.90
46730;DHT22;32476;50.002;11.854;2023-06-10T07:32:10;20.00;99.90
46730;DHT22;32476;50.002;11.854;2023-06-10T07:34:38;19.90;99.90
46730;DHT22;32476;50.002;11.854;2023-06-10T07:37:04;20.10;99.90
46730;DHT22;32476;50.002;11.854;2023-06-10T07:39:30;20.30;99.90
46730;DHT22;32476;50.002;11.854;2023-06-10T07:41:58;20.60;99.90
46730;DHT22;32476;50.002;11.854;2023-06-10T07:44:24;20.40;99.90
46730;DHT22;32476;50.002;11.854;2023-06-10T07:46:49;20.40;99.90
46730;DHT22;32476;50.002;11.854;2023-06-10T07:49:17;20.70;99.90
46730;DHT22;32476;50.002;11.854;2023-06-10T07:51:43;20.90;99.90
46730;DHT22;32476;50.002;11.854;2023-06-10T07:54:09;21.10;99.90
46730;DHT22;32476;50.002;11.854;2023-06-10T07:56:36;21.40;99.90
46730;DHT22;32476;50.002;11.854;2023-06-10T07:59:02;21.30;99.90
46730;DHT22;32476;50.002;11.854;2023-06-10T08:01:29;21.40;99.90
46730;DHT22;32476;50.002;11.854;2023-06-10T08:03:57;21.30;99.90
46730;DHT22;32476;50.002;11.854;2023-06-10T08:06:23;21.00;99.90
46730;DHT22;32476;50.002;11.854;2023-06-10T08:08:49;21.20;99.90
46730;DHT22;32476;50.002;11.854;2023-06-10T08:11:16;21.10;99.90
46730;DHT22;32476;50.002;11.854;2023-06-10T08:13:42;21.20;99.90
46730;DHT22;32476;50.002;11.854;2023-06-10T08:16:08;21.10;99.90
46730;DHT22;32476;50.002;11.854;2023-06-10T08:18:35;21.20;99.90
46730;DHT22;32476;50.002;11.854;2023-06-10T08:21:01;21.50;99.90
46730;DHT22;32476;50.002;11.854;2023-06-10T08:23:27;21.50;99.90
46730;DHT22;32476;50.002;11.854;2023-06-10T08:25:55;21.80;99.90
46730;DHT22;32476;50.002;11.854;2023-06-10T08:28:21;22.00;99.90
46730;DHT22;32476;50.002;11.854;2023-06-10T08:30:47;22.70;99.90
46730;DHT22;32476;50.002;11.854;2023-06-10T08:33:14;22.40;99.90
46730;DHT22;32476;50.002;11.854;2023-06-10T08:35:40;22.40;99.90
46730;DHT22;32476;50.002;11.854;2023-06-10T08:38:06;22.30;99.90
46730;DHT22;32476;50.002;11.854;2023-06-10T08:40:34;22.40;99.90
46730;DHT22;32476;50.002;11.854;2023-06-10T08:43:06;22.90;99.90
46730;DHT22;32476;50.002;11.854;2023-06-10T08:45:36;23.20;99.90
46730;DHT22;32476;50.002;11.854;2023-06-10T08:48:03;23.10;99.90
46730;DHT22;32476;50.002;11.854;2023-06-10T08:50:37;23.00;99.90
46730;DHT22;32476;50.002;11.854;2023-06-10T08:53:06;23.00;99.90
46730;DHT22;32476;50.002;11.854;2023-06-10T08:55:42;22.80;99.90
46730;DHT22;32476;50.002;11.854;2023-06-10T08:58:09;22.20;99.90
46730;DHT22;32476;50.002;11.854;2023-06-10T09:00:36;22.60;99.90
46730;DHT22;32476;50.002;11.854;2023-06-10T09:03:04;22.70;99.90
46730;DHT22;32476;50.002;11.854;2023-06-10T09:05:34;23.00;99.90
46730;DHT22;32476;50.002;11.854;2023-06-10T09:08:02;23.10;99.90
46730;DHT22;32476;50.002;11.854;2023-06-10T09:10:29;23.90;99.90
46730;DHT22;32476;50.002;11.854;2023-06-10T09:12:57;23.90;98.80
46730;DHT22;32476;50.002;11.854;2023-06-10T09:15:23;23.50;98.90
46730;DHT22;32476;50.002;11.854;2023-06-10T09:17:49;22.80;99.60
46730;DHT22;32476;50.002;11.854;2023-06-10T09:20:16;22.80;99.80
46730;DHT22;32476;50.002;11.854;2023-06-10T09:22:43;22.70;99.90
46730;DHT22;32476;50.002;11.854;2023-06-10T09:25:11;23.10;99.90
46730;DHT22;32476;50.002;11.854;2023-06-10T09:27:52;23.80;99.80
46730;DHT22;32476;50.002;11.854;2023-06-10T09:30:31;23.20;98.30
46730;DHT22;32476;50.002;11.854;2023-06-10T09:33:02;23.80;99.90
46730;DHT22;32476;50.002;11.854;2023-06-10T09:35:30;24.10;98.30
46730;DHT22;32476;50.002;11.854;2023-06-10T09:37:58;24.00;98.80
46730;DHT22;32476;50.002;11.854;2023-06-10T09:40:27;24.00;97.90
46730;DHT22;32476;50.002;11.854;2023-06-10T09:42:57;23.30;98.70
46730;DHT22;32476;50.002;11.854;2023-06-10T09:45:32;24.00;99.30
46730;DHT22;32476;50.002;11.854;2023-06-10T09:47:58;24.20;98.00
46730;DHT22;32476;50.002;11.854;2023-06-10T09:50:26;24.10;98.80
46730;DHT22;32476;50.002;11.854;2023-06-10T09:52:52;24.00;97.50
46730;DHT22;32476;50.002;11.854;2023-06-10T09:55:18;24.20;98.80
46730;DHT22;32476;50.002;11.854;2023-06-10T09:57:49;24.40;97.40
46730;DHT22;32476;50.002;11.854;2023-06-10T10:00:15;24.80;97.00
46730;DHT22;32476;50.002;11.854;2023-06-10T10:02:49;24.60;96.90
46730;DHT22;32476;50.002;11.854;2023-06-10T10:05:20;24.20;96.50
46730;DHT22;32476;50.002;11.854;2023-06-10T10:07:47;24.00;97.80
46730;DHT22;32476;50.002;11.854;2023-06-10T10:10:15;23.80;97.10
46730;DHT22;32476;50.002;11.854;2023-06-10T10:12:46;24.10;97.80
46730;DHT22;32476;50.002;11.854;2023-06-10T10:15:13;24.10;97.30
46730;DHT22;32476;50.002;11.854;2023-06-10T10:17:48;23.60;97.50
46730;DHT22;32476;50.002;11.854;2023-06-10T10:20:20;23.50;98.70
46730;DHT22;32476;50.002;11.854;2023-06-10T10:22:52;23.10;97.80
46730;DHT22;32476;50.002;11.854;2023-06-10T10:25:34;23.10;98.80
46730;DHT22;32476;50.002;11.854;2023-06-10T10:30:51;24.80;97.10
46730;DHT22;32476;50.002;11.854;2023-06-10T10:33:23;25.60;96.40
46730;DHT22;32476;50.002;11.854;2023-06-10T10:35:58;25.10;94.60
46730;DHT22;32476;50.002;11.854;2023-06-10T10:38:25;24.60;95.10
46730;DHT22;32476;50.002;11.854;2023-06-10T10:40:52;24.60;96.10
46730;DHT22;32476;50.002;11.854;2023-06-10T10:43:19;24.90;95.70
46730;DHT22;32476;50.002;11.854;2023-06-10T10:45:58;25.00;95.00
46730;DHT22;32476;50.002;11.854;2023-06-10T10:48:26;25.70;94.40
46730;DHT22;32476;50.002;11.854;2023-06-10T10:50:57;24.60;94.10
46730;DHT22;32476;50.002;11.854;2023-06-10T10:53:24;25.00;95.10
46730;DHT22;32476;50.002;11.854;2023-06-10T10:56:07;25.70;95.10
46730;DHT22;32476;50.002;11.854;2023-06-10T10:58:35;25.90;94.50
46730;DHT22;32476;50.002;11.854;2023-06-10T11:01:14;26.00;94.20
46730;DHT22;32476;50.002;11.854;2023-06-10T11:03:43;25.50;93.60
46730;DHT22;32476;50.002;11.854;2023-06-10T11:06:14;25.10;94.30
46730;DHT22;32476;50.002;11.854;2023-06-10T11:11:26;25.60;93.80
46730;DHT22;32476;50.002;11.854;2023-06-10T11:16:28;25.60;92.80
46730;DHT22;32476;50.002;11.854;2023-06-10T11:18:56;24.40;93.40
46730;DHT22;32476;50.002;11.854;2023-06-10T11:21:25;24.10;94.20
46730;DHT22;32476;50.002;11.854;2023-06-10T11:23:51;23.70;95.00
46730;DHT22;32476;50.002;11.854;2023-06-10T11:31:39;23.60;95.60
46730;DHT22;32476;50.002;11.854;2023-06-10T11:34:07;23.20;95.40
46730;DHT22;32476;50.002;11.854;2023-06-10T11:36:37;22.80;95.80
46730;DHT22;32476;50.002;11.854;2023-06-10T11:39:09;23.20;95.30
46730;DHT22;32476;50.002;11.854;2023-06-10T11:41:38;24.30;95.30
46730;DHT22;32476;50.002;11.854;2023-06-10T11:46:37;24.90;92.20
46730;DHT22;32476;50.002;11.854;2023-06-10T11:49:04;24.50;93.40
46730;DHT22;32476;50.002;11.854;2023-06-10T11:51:35;23.80;95.10
46730;DHT22;32476;50.002;11.854;2023-06-10T11:54:10;23.40;96.10
46730;DHT22;32476;50.002;11.854;2023-06-10T11:56:36;23.80;95.70
46730;DHT22;32476;50.002;11.854;2023-06-10T11:59:04;24.70;94.20
46730;DHT22;32476;50.002;11.854;2023-06-10T12:01:36;25.00;92.60
46730;DHT22;32476;50.002;11.854;2023-06-10T12:04:05;25.60;92.80
46730;DHT22;32476;50.002;11.854;2023-06-10T12:06:48;26.10;91.80
46730;DHT22;32476;50.002;11.854;2023-06-10T12:09:18;26.70;91.20
46730;DHT22;32476;50.002;11.854;2023-06-10T12:11:52;26.40;90.30
46730;DHT22;32476;50.002;11.854;2023-06-10T12:20:29;24.80;91.90
46730;DHT22;32476;50.002;11.854;2023-06-10T12:23:07;24.40;92.90
46730;DHT22;32476;50.002;11.854;2023-06-10T12:25:35;24.30;94.50
46730;DHT22;32476;50.002;11.854;2023-06-10T12:28:05;24.30;93.20
46730;DHT22;32476;50.002;11.854;2023-06-10T12:30:31;24.20;94.30
46730;DHT22;32476;50.002;11.854;2023-06-10T12:32:58;24.20;93.90
46730;DHT22;32476;50.002;11.854;2023-06-10T12:35:27;24.20;93.70
46730;DHT22;32476;50.002;11.854;2023-06-10T12:37:56;24.60;94.20
46730;DHT22;32476;50.002;11.854;2023-06-10T12:40:34;25.20;93.40
46730;DHT22;32476;50.002;11.854;2023-06-10T12:43:03;25.30;92.70
46730;DHT22;32476;50.002;11.854;2023-06-10T12:45:33;24.80;93.20
46730;DHT22;32476;50.002;11.854;2023-06-10T12:48:18;25.10;93.80
46730;DHT22;32476;50.002;11.854;2023-06-10T12:50:51;24.60;92.80
46730;DHT22;32476;50.002;11.854;2023-06-10T12:53:19;24.70;93.90
46730;DHT22;32476;50.002;11.854;2023-06-10T12:55:47;24.80;93.70
46730;DHT22;32476;50.002;11.854;2023-06-10T12:58:13;25.20;94.00
46730;DHT22;32476;50.002;11.854;2023-06-10T13:00:40;25.60;93.60
46730;DHT22;32476;50.002;11.854;2023-06-10T13:03:09;25.90;91.60
46730;DHT22;32476;50.002;11.854;2023-06-10T13:05:36;25.70;91.60
46730;DHT22;32476;50.002;11.854;2023-06-10T13:08:05;26.20;91.00
46730;DHT22;32476;50.002;11.854;2023-06-10T13:10:34;25.30;90.60
46730;DHT22;32476;50.002;11.854;2023-06-10T13:13:01;25.40;91.40
46730;DHT22;32476;50.002;11.854;2023-06-10T13:15:31;25.60;90.10
46730;DHT22;32476;50.002;11.854;2023-06-10T13:18:03;25.60;91.10
46730;DHT22;32476;50.002;11.854;2023-06-10T13:20:31;25.50;90.00
46730;DHT22;32476;50.002;11.854;2023-06-10T13:22:57;25.00;90.70
46730;DHT22;32476;50.002;11.854;2023-06-10T13:25:24;24.80;91.00
46730;DHT22;32476;50.002;11.854;2023-06-10T13:27:50;24.60;91.90
46730;DHT22;32476;50.002;11.854;2023-06-10T13:30:16;24.10;91.70
46730;DHT22;32476;50.002;11.854;2023-06-10T13:32:43;23.70;92.40
46730;DHT22;32476;50.002;11.854;2023-06-10T13:35:09;23.20;93.20
46730;DHT22;32476;50.002;11.854;2023-06-10T13:37:35;23.10;95.10
46730;DHT22;32476;50.002;11.854;2023-06-10T13:40:04;22.70;95.30
46730;DHT22;32476;50.002;11.854;2023-06-10T13:42:30;22.60;96.50
46730;DHT22;32476;50.002;11.854;2023-06-10T13:44:56;21.90;98.90
46730;DHT22;32476;50.002;11.854;2023-06-10T13:47:24;21.00;99.90
46730;DHT22;32476;50.002;11.854;2023-06-10T13:49:50;20.60;99.90
46730;DHT22;32476;50.002;11.854;2023-06-10T13:52:16;20.20;99.90
46730;DHT22;32476;50.002;11.854;2023-06-10T13:54:45;19.40;99.90
46730;DHT22;32476;50.002;11.854;2023-06-10T13:57:11;19.10;99.90
46730;DHT22;32476;50.002;11.854;2023-06-10T13:59:37;19.10;99.90
46730;DHT22;32476;50.002;11.854;2023-06-10T14:02:05;19.10;99.90
46730;DHT22;32476;50.002;11.854;2023-06-10T14:04:31;19.00;99.90
46730;DHT22;32476;50.002;11.854;2023-06-10T14:06:58;18.90;99.90
46730;DHT22;32476;50.002;11.854;2023-06-10T14:09:25;18.70;99.90
46730;DHT22;32476;50.002;11.854;2023-06-10T14:11:51;18.70;99.90
46730;DHT22;32476;50.002;11.854;2023-06-10T14:14:17;18.70;99.90
46730;DHT22;32476;50.002;11.854;2023-06-10T14:16:46;18.80;99.90
46730;DHT22;32476;50.002;11.854;2023-06-10T14:19:12;19.20;99.90
46730;DHT22;32476;50.002;11.854;2023-06-10T14:21:38;19.40;99.90
46730;DHT22;32476;50.002;11.854;2023-06-10T14:24:05;19.70;99.90
46730;DHT22;32476;50.002;11.854;2023-06-10T14:26:31;20.20;99.90
46730;DHT22;32476;50.002;11.854;2023-06-10T14:28:58;20.20;99.90
46730;DHT22;32476;50.002;11.854;2023-06-10T14:31:25;20.80;99.90
46730;DHT22;32476;50.002;11.854;2023-06-10T14:33:51;21.50;99.90
46730;DHT22;32476;50.002;11.854;2023-06-10T14:36:17;22.20;99.90
46730;DHT22;32476;50.002;11.854;2023-06-10T14:38:46;22.60;99.90
46730;DHT22;32476;50.002;11.854;2023-06-10T14:41:12;22.80;99.90
46730;DHT22;32476;50.002;11.854;2023-06-10T14:43:38;23.10;99.90
46730;DHT22;32476;50.002;11.854;2023-06-10T14:46:05;23.20;99.90
46730;DHT22;32476;50.002;11.854;2023-06-10T14:48:31;23.50;99.90
46730;DHT22;32476;50.002;11.854;2023-06-10T14:50:57;23.20;99.90
46730;DHT22;32476;50.002;11.854;2023-06-10T14:53:25;22.60;99.90
46730;DHT22;32476;50.002;11.854;2023-06-10T14:55:51;22.50;99.90
46730;DHT22;32476;50.002;11.854;2023-06-10T14:58:16;22.30;99.90
46730;DHT22;32476;50.002;11.854;2023-06-10T15:00:44;22.40;99.90
46730;DHT22;32476;50.002;11.854;2023-06-10T15:03:10;21.80;99.90
46730;DHT22;32476;50.002;11.854;2023-06-10T15:05:37;21.80;99.90
46730;DHT22;32476;50.002;11.854;2023-06-10T15:08:04;21.80;99.90
46730;DHT22;32476;50.002;11.854;2023-06-10T15:10:30;21.80;99.90
46730;DHT22;32476;50.002;11.854;2023-06-10T15:12:56;22.10;99.90
46730;DHT22;32476;50.002;11.854;2023-06-10T15:15:25;22.30;99.90
46730;DHT22;32476;50.002;11.854;2023-06-10T15:17:52;22.40;99.90
46730;DHT22;32476;50.002;11.854;2023-06-10T15:20:18;22.60;99.90
46730;DHT22;32476;50.002;11.854;2023-06-10T15:22:45;22.40;99.90
46730;DHT22;32476;50.002;11.854;2023-06-10T15:25:11;22.40;99.90
46730;DHT22;32476;50.002;11.854;2023-06-10T15:27:37;22.60;99.90
46730;DHT22;32476;50.002;11.854;2023-06-10T15:30:07;22.60;99.90
46730;DHT22;32476;50.002;11.854;2023-06-10T15:32:33;22.80;99.90
46730;DHT22;32476;50.002;11.854;2023-06-10T15:34:59;23.20;99.90
46730;DHT22;32476;50.002;11.854;2023-06-10T15:37:26;23.40;99.90
46730;DHT22;32476;50.002;11.854;2023-06-10T15:39:52;23.80;99.90
46730;DHT22;32476;50.002;11.854;2023-06-10T15:42:18;23.90;99.90
46730;DHT22;32476;50.002;11.854;2023-06-10T15:44:46;24.20;99.90